Time;durP1;ratioP1;P1;durP2;ratioP2;P2;SDS_P1;SDS_P2;PMS_P1;PMS_P2;Temp;Humidity;BMP_temperature;BMP_pressure;BME280_temperature;BME280_humidity;BME280_pressure;Samples;Min_cycle;Max_cycle;Signal;HPM_P1;HPM_P2
2021/11/24 00:01:54;;;;;;;2.25;1.60;;;;;;;;;;5072707;28;20051;-44
2021/11/24 00:04:20;;;;;;;4.78;1.77;;;;;;;;;;5073001;28;20040;-43
2021/11/24 00:06:46;;;;;;;2.00;1.50;;;;;;;;;;5072280;28;20086;-47
2021/11/24 00:09:12;;;;;;;1.52;1.25;;;;;;;;;;5073079;28;20382;-43
2021/11/24 00:11:38;;;;;;;1.77;1.50;;;;;;;;;;5072270;28;20475;-43
2021/11/24 00:14:04;;;;;;;3.15;1.83;;;;;;;;;;5072949;28;20478;-42
2021/11/24 00:16:30;;;;;;;2.20;1.50;;;;;;;;;;5064626;28;20041;-42
2021/11/24 00:18:56;;;;;;;2.42;1.67;;;;;;;;;;5065097;28;20571;-43
2021/11/24 00:21:22;;;;;;;1.83;1.60;;;;;;;;;;5072325;28;20063;-44
2021/11/24 00:23:48;;;;;;;3.05;1.88;;;;;;;;;;5065394;28;20051;-46
2021/11/24 00:26:15;;;;;;;2.35;1.55;;;;;;;;;;5072682;28;20032;-44
2021/11/24 00:28:41;;;;;;;2.65;1.90;;;;;;;;;;5072037;28;20139;-44
2021/11/24 00:31:07;;;;;;;2.40;1.85;;;;;;;;;;5072421;28;20024;-45
2021/11/24 00:33:33;;;;;;;2.78;1.58;;;;;;;;;;5072036;28;20032;-42
2021/11/24 00:36:00;;;;;;;1.63;1.10;;;;;;;;;;5070815;28;20048;-44
2021/11/24 00:38:26;;;;;;;3.00;1.52;;;;;;;;;;5058284;28;20096;-43
2021/11/24 00:40:52;;;;;;;2.25;1.40;;;;;;;;;;5068940;28;20511;-44
2021/11/24 00:43:21;;;;;;;2.53;1.70;;;;;;;;;;5071752;28;20056;-47
2021/11/24 00:45:47;;;;;;;3.05;1.50;;;;;;;;;;5071664;28;20556;-45
2021/11/24 00:48:13;;;;;;;2.72;1.70;;;;;;;;;;5072884;28;20413;-43
2021/11/24 00:50:39;;;;;;;2.40;1.48;;;;;;;;;;5073232;28;20463;-45
2021/11/24 00:53:05;;;;;;;1.90;1.30;;;;;;;;;;5073296;28;20032;-43
2021/11/24 00:55:31;;;;;;;2.60;1.45;;;;;;;;;;5074034;28;20028;-46
2021/11/24 00:57:57;;;;;;;1.85;1.48;;;;;;;;;;5073760;28;20055;-46
2021/11/24 01:00:23;;;;;;;2.15;1.55;;;;;;;;;;5073032;28;20137;-45
2021/11/24 01:02:50;;;;;;;2.20;1.40;;;;;;;;;;5073152;28;20156;-48
2021/11/24 01:05:16;;;;;;;2.17;1.58;;;;;;;;;;5073984;28;20020;-43
2021/11/24 01:07:42;;;;;;;2.20;1.30;;;;;;;;;;5073690;28;20033;-44
2021/11/24 01:10:09;;;;;;;1.70;1.20;;;;;;;;;;5073570;28;20115;-44
2021/11/24 01:12:35;;;;;;;3.63;1.50;;;;;;;;;;5073283;28;20020;-42
2021/11/24 01:15:01;;;;;;;2.58;1.60;;;;;;;;;;5073005;28;20035;-43
2021/11/24 01:17:27;;;;;;;1.95;1.42;;;;;;;;;;5073493;28;20055;-43
2021/11/24 01:19:53;;;;;;;2.78;1.50;;;;;;;;;;5073785;28;20052;-44
2021/11/24 01:22:19;;;;;;;3.05;1.75;;;;;;;;;;5064839;28;20032;-46
2021/11/24 01:24:45;;;;;;;2.17;1.65;;;;;;;;;;5072303;28;20478;-42
2021/11/24 01:27:11;;;;;;;2.63;1.60;;;;;;;;;;5073408;28;20463;-44
2021/11/24 01:29:37;;;;;;;2.10;1.35;;;;;;;;;;5073146;28;20043;-43
2021/11/24 01:32:04;;;;;;;3.08;1.23;;;;;;;;;;5073075;28;20020;-43
2021/11/24 01:34:30;;;;;;;2.70;1.60;;;;;;;;;;5073315;28;20453;-42
2021/11/24 01:36:56;;;;;;;3.17;1.77;;;;;;;;;;5072980;28;20136;-46
2021/11/24 01:39:22;;;;;;;3.40;1.60;;;;;;;;;;5073049;28;20060;-42
2021/11/24 01:41:48;;;;;;;3.03;1.40;;;;;;;;;;5072485;28;20448;-42
2021/11/24 01:44:20;;;;;;;1.92;1.50;;;;;;;;;;5072993;28;20112;-42
2021/11/24 01:46:51;;;;;;;2.38;1.42;;;;;;;;;;5072958;28;20037;-43
2021/11/24 01:49:17;;;;;;;1.52;1.27;;;;;;;;;;5072300;28;20060;-47
2021/11/24 01:51:43;;;;;;;2.83;1.60;;;;;;;;;;5070677;28;20048;-42
2021/11/24 01:54:09;;;;;;;1.83;1.38;;;;;;;;;;5071288;28;20615;-43
2021/11/24 01:56:39;;;;;;;3.33;2.28;;;;;;;;;;5071433;28;20104;-48
2021/11/24 01:59:05;;;;;;;2.17;1.52;;;;;;;;;;5071624;28;20484;-44
2021/11/24 02:01:31;;;;;;;2.28;1.40;;;;;;;;;;5070211;28;20104;-44
2021/11/24 02:03:57;;;;;;;2.95;1.88;;;;;;;;;;5070137;28;20082;-44
2021/11/24 02:06:23;;;;;;;2.72;1.27;;;;;;;;;;5071132;28;20378;-47
2021/11/24 02:08:49;;;;;;;2.40;1.65;;;;;;;;;;5070355;28;20474;-45
2021/11/24 02:11:15;;;;;;;2.70;1.80;;;;;;;;;;5070894;28;20122;-42
2021/11/24 02:13:42;;;;;;;1.73;1.30;;;;;;;;;;5069950;28;20036;-43
2021/11/24 02:16:08;;;;;;;1.95;1.38;;;;;;;;;;5071175;28;20040;-48
2021/11/24 02:18:34;;;;;;;1.88;1.50;;;;;;;;;;5071212;28;20025;-43
2021/11/24 02:21:00;;;;;;;2.30;1.50;;;;;;;;;;5070810;28;20385;-42
2021/11/24 02:23:26;;;;;;;1.75;1.30;;;;;;;;;;5055420;28;20036;-42
2021/11/24 02:25:52;;;;;;;2.00;1.42;;;;;;;;;;5070224;28;20033;-42
2021/11/24 02:28:18;;;;;;;2.67;1.55;;;;;;;;;;5071309;28;20151;-43
2021/11/24 02:30:44;;;;;;;2.67;1.88;;;;;;;;;;5070366;28;20023;-43
2021/11/24 02:33:10;;;;;;;2.78;1.80;;;;;;;;;;5070906;28;20101;-42
2021/11/24 02:35:36;;;;;;;3.13;1.50;;;;;;;;;;5070642;28;20076;-48
2021/11/24 02:38:04;;;;;;;2.25;1.45;;;;;;;;;;5071110;28;20121;-44
2021/11/24 02:40:31;;;;;;;2.60;1.77;;;;;;;;;;5071633;28;20017;-43
2021/11/24 02:42:57;;;;;;;1.77;1.20;;;;;;;;;;5070414;28;20028;-45
2021/11/24 02:45:24;;;;;;;2.45;1.45;;;;;;;;;;5069958;28;20025;-43
2021/11/24 02:47:50;;;;;;;2.40;1.60;;;;;;;;;;5070136;28;20044;-42
2021/11/24 02:50:16;;;;;;;2.28;1.50;;;;;;;;;;5070927;28;20020;-42
2021/11/24 02:52:42;;;;;;;1.85;1.40;;;;;;;;;;5072066;28;20056;-42
2021/11/24 02:55:08;;;;;;;2.53;1.60;;;;;;;;;;5074568;28;20067;-42
2021/11/24 02:57:42;;;;;;;2.28;1.40;;;;;;;;;;5074627;28;20412;-43
2021/11/24 03:00:20;;;;;;;2.72;1.50;;;;;;;;;;5074632;28;20104;-42
2021/11/24 03:02:47;;;;;;;2.25;1.70;;;;;;;;;;5072886;28;20017;-42
2021/11/24 03:05:15;;;;;;;2.53;1.70;;;;;;;;;;5074028;28;20119;-43
2021/11/24 03:07:41;;;;;;;1.80;1.42;;;;;;;;;;5073293;28;20477;-42
2021/11/24 03:10:08;;;;;;;1.38;1.20;;;;;;;;;;5074514;28;20359;-42
2021/11/24 03:12:34;;;;;;;2.65;1.30;;;;;;;;;;5074508;28;20028;-43
2021/11/24 03:15:00;;;;;;;2.03;1.55;;;;;;;;;;5073551;28;20016;-42
2021/11/24 03:17:26;;;;;;;3.05;1.20;;;;;;;;;;5074272;28;20032;-46
2021/11/24 03:19:53;;;;;;;1.95;1.33;;;;;;;;;;5073620;28;20104;-42
2021/11/24 03:22:22;;;;;;;1.80;1.52;;;;;;;;;;5067081;28;20025;-43
2021/11/24 03:24:55;;;;;;;2.22;1.58;;;;;;;;;;5054378;28;20036;-43
2021/11/24 03:27:22;;;;;;;2.22;1.52;;;;;;;;;;5074238;28;20035;-45
2021/11/24 03:29:49;;;;;;;2.00;1.50;;;;;;;;;;5073125;28;20024;-46
2021/11/24 03:32:15;;;;;;;3.50;1.48;;;;;;;;;;5074092;28;20385;-42
2021/11/24 03:34:42;;;;;;;3.50;1.58;;;;;;;;;;5073014;28;20089;-49
2021/11/24 03:37:08;;;;;;;2.30;1.60;;;;;;;;;;5074239;28;20052;-42
2021/11/24 03:39:34;;;;;;;2.30;1.77;;;;;;;;;;5073992;28;20031;-43
2021/11/24 03:42:00;;;;;;;3.08;1.52;;;;;;;;;;5072686;28;20653;-45
2021/11/24 03:44:26;;;;;;;1.40;1.30;;;;;;;;;;5073435;28;20050;-42
2021/11/24 03:46:52;;;;;;;3.17;2.05;;;;;;;;;;5072844;28;20481;-44
2021/11/24 03:49:19;;;;;;;2.42;1.65;;;;;;;;;;5073747;28;20013;-47
2021/11/24 03:51:45;;;;;;;3.03;1.80;;;;;;;;;;5073216;28;20040;-44
2021/11/24 03:54:11;;;;;;;2.03;1.30;;;;;;;;;;5073907;28;20078;-42
2021/11/24 03:56:37;;;;;;;2.88;1.38;;;;;;;;;;5073419;28;20028;-45
2021/11/24 03:59:03;;;;;;;2.00;1.63;;;;;;;;;;5072694;28;20020;-43
2021/11/24 04:01:29;;;;;;;1.90;1.33;;;;;;;;;;5073676;28;20048;-44
2021/11/24 04:03:55;;;;;;;2.20;1.77;;;;;;;;;;5053697;28;20021;-44
2021/11/24 04:06:22;;;;;;;1.92;1.30;;;;;;;;;;5055128;28;20029;-47
2021/11/24 04:08:48;;;;;;;1.67;1.25;;;;;;;;;;5051307;28;20021;-47
2021/11/24 04:11:14;;;;;;;2.70;1.60;;;;;;;;;;5051875;28;20370;-46
2021/11/24 04:13:42;;;;;;;2.03;1.60;;;;;;;;;;5051523;28;20417;-47
2021/11/24 04:16:08;;;;;;;2.30;1.52;;;;;;;;;;5054846;28;20394;-45
2021/11/24 04:18:35;;;;;;;2.55;1.40;;;;;;;;;;5052054;28;20024;-47
2021/11/24 04:21:01;;;;;;;2.28;1.38;;;;;;;;;;5052450;28;20195;-49
2021/11/24 04:23:27;;;;;;;1.65;1.30;;;;;;;;;;5053463;28;20029;-43
2021/11/24 04:25:53;;;;;;;1.83;1.60;;;;;;;;;;5053656;28;20025;-44
2021/11/24 04:28:19;;;;;;;1.75;1.52;;;;;;;;;;5052128;28;20411;-43
2021/11/24 04:30:45;;;;;;;1.77;1.50;;;;;;;;;;5051997;28;20028;-43
2021/11/24 04:33:11;;;;;;;1.80;1.60;;;;;;;;;;5051991;28;20025;-44
2021/11/24 04:35:39;;;;;;;2.92;1.40;;;;;;;;;;5053914;28;20064;-43
2021/11/24 04:38:05;;;;;;;2.38;1.40;;;;;;;;;;5051284;28;20021;-43
2021/11/24 04:40:32;;;;;;;2.55;1.50;;;;;;;;;;5051871;28;20021;-44
2021/11/24 04:43:01;;;;;;;2.58;1.58;;;;;;;;;;5051064;28;20025;-44
2021/11/24 04:45:27;;;;;;;1.77;1.65;;;;;;;;;;5055495;28;20017;-42
2021/11/24 04:47:53;;;;;;;2.10;1.20;;;;;;;;;;5050391;28;20056;-43
2021/11/24 04:50:19;;;;;;;2.78;1.77;;;;;;;;;;5054139;28;20269;-44
2021/11/24 04:52:46;;;;;;;3.22;1.70;;;;;;;;;;5050797;28;20021;-43
2021/11/24 04:55:12;;;;;;;2.97;1.80;;;;;;;;;;5052411;28;20033;-43
2021/11/24 04:57:41;;;;;;;3.95;1.88;;;;;;;;;;5048843;28;20075;-46
2021/11/24 05:00:12;;;;;;;3.13;2.03;;;;;;;;;;5051061;28;20049;-42
2021/11/24 05:02:38;;;;;;;2.30;1.67;;;;;;;;;;5048834;28;20032;-43
2021/11/24 05:05:04;;;;;;;1.85;1.73;;;;;;;;;;5051401;28;20029;-42
2021/11/24 05:07:30;;;;;;;3.28;2.25;;;;;;;;;;5051129;28;20021;-43
2021/11/24 05:09:56;;;;;;;2.70;1.85;;;;;;;;;;5050501;28;20028;-42
2021/11/24 05:12:22;;;;;;;2.90;1.63;;;;;;;;;;5050920;28;20518;-45
2021/11/24 05:14:50;;;;;;;2.40;1.80;;;;;;;;;;5053380;28;20029;-42
2021/11/24 05:17:19;;;;;;;2.65;1.50;;;;;;;;;;5050328;28;20021;-42
2021/11/24 05:19:48;;;;;;;2.47;2.00;;;;;;;;;;5050203;28;20017;-43
2021/11/24 05:22:15;;;;;;;2.88;2.05;;;;;;;;;;5053612;28;20021;-43
2021/11/24 05:24:43;;;;;;;3.45;2.10;;;;;;;;;;5051560;28;20493;-44
2021/11/24 05:27:09;;;;;;;3.28;2.10;;;;;;;;;;5051955;28;20059;-42
2021/11/24 05:29:35;;;;;;;2.70;1.90;;;;;;;;;;5050754;28;20024;-42
2021/11/24 05:32:01;;;;;;;4.00;2.05;;;;;;;;;;5050136;28;20025;-46
2021/11/24 05:34:27;;;;;;;3.95;2.38;;;;;;;;;;5051039;28;20066;-43
2021/11/24 05:36:53;;;;;;;2.72;1.98;;;;;;;;;;5049263;28;20486;-42
2021/11/24 05:39:19;;;;;;;2.65;1.60;;;;;;;;;;5050808;28;20029;-42
2021/11/24 05:41:45;;;;;;;2.35;1.75;;;;;;;;;;5049825;28;20351;-43
2021/11/24 05:44:22;;;;;;;2.50;1.98;;;;;;;;;;5051463;28;20091;-46
2021/11/24 05:46:52;;;;;;;3.05;1.88;;;;;;;;;;5048259;28;20457;-44
2021/11/24 05:49:18;;;;;;;2.22;1.65;;;;;;;;;;5048635;28;20481;-43
2021/11/24 05:51:45;;;;;;;2.40;1.92;;;;;;;;;;5049576;28;20059;-42
2021/11/24 05:54:11;;;;;;;2.05;1.50;;;;;;;;;;5051385;28;20033;-42
2021/11/24 05:56:38;;;;;;;2.35;1.85;;;;;;;;;;5050579;28;20028;-42
2021/11/24 05:59:05;;;;;;;2.15;1.55;;;;;;;;;;5049733;28;20108;-42
2021/11/24 06:01:31;;;;;;;2.60;1.80;;;;;;;;;;5051099;28;20110;-42
2021/11/24 06:03:58;;;;;;;3.08;1.70;;;;;;;;;;5055021;28;20082;-47
2021/11/24 06:06:24;;;;;;;3.08;1.70;;;;;;;;;;5071657;28;20465;-43
2021/11/24 06:08:50;;;;;;;2.28;1.90;;;;;;;;;;5070545;28;20398;-42
2021/11/24 06:11:16;;;;;;;3.08;1.85;;;;;;;;;;5071231;28;20422;-43
2021/11/24 06:13:43;;;;;;;2.25;1.52;;;;;;;;;;5071121;28;20420;-48
2021/11/24 06:16:09;;;;;;;2.50;1.85;;;;;;;;;;5071041;28;20063;-44
2021/11/24 06:18:36;;;;;;;2.90;1.88;;;;;;;;;;5056723;28;20425;-43
2021/11/24 06:21:02;;;;;;;3.50;2.08;;;;;;;;;;5051673;28;20090;-43
2021/11/24 06:23:28;;;;;;;2.55;1.85;;;;;;;;;;5050826;28;20044;-47
2021/11/24 06:25:54;;;;;;;2.47;1.60;;;;;;;;;;5050191;28;20044;-43
2021/11/24 06:28:20;;;;;;;3.03;1.70;;;;;;;;;;5054698;28;20356;-45
2021/11/24 06:30:47;;;;;;;2.85;1.63;;;;;;;;;;5065693;28;20103;-46
2021/11/24 06:33:13;;;;;;;2.63;1.60;;;;;;;;;;5075365;28;20096;-43
2021/11/24 06:35:39;;;;;;;3.67;2.28;;;;;;;;;;5074354;28;20056;-43
2021/11/24 06:38:05;;;;;;;3.45;2.08;;;;;;;;;;5074569;28;20028;-43
2021/11/24 06:40:31;;;;;;;3.10;2.00;;;;;;;;;;5075083;28;20055;-42
2021/11/24 06:42:57;;;;;;;3.03;2.00;;;;;;;;;;5074315;28;20031;-43
2021/11/24 06:45:24;;;;;;;2.20;1.60;;;;;;;;;;5075363;28;20028;-42
2021/11/24 06:47:50;;;;;;;4.30;2.00;;;;;;;;;;5074270;28;20040;-43
2021/11/24 06:50:16;;;;;;;3.28;1.90;;;;;;;;;;5074742;28;20021;-43
2021/11/24 06:52:48;;;;;;;3.25;2.25;;;;;;;;;;5074951;28;20029;-46
2021/11/24 06:55:14;;;;;;;2.75;1.55;;;;;;;;;;5074680;28;20024;-44
2021/11/24 06:57:40;;;;;;;3.25;1.80;;;;;;;;;;5074752;28;20417;-42
2021/11/24 07:00:07;;;;;;;6.07;2.85;;;;;;;;;;5074005;28;20059;-44
2021/11/24 07:02:33;;;;;;;7.05;3.20;;;;;;;;;;5072377;28;20026;-45
2021/11/24 07:04:59;;;;;;;4.20;3.03;;;;;;;;;;5073588;28;20481;-45
2021/11/24 07:07:25;;;;;;;4.65;2.65;;;;;;;;;;5074244;28;20058;-43
2021/11/24 07:09:51;;;;;;;6.60;2.67;;;;;;;;;;5073436;28;20074;-47
2021/11/24 07:12:21;;;;;;;6.30;2.75;;;;;;;;;;5074132;28;20100;-44
2021/11/24 07:14:47;;;;;;;5.50;2.88;;;;;;;;;;5073551;28;20024;-47
2021/11/24 07:17:13;;;;;;;4.30;2.53;;;;;;;;;;5074365;28;20074;-44
2021/11/24 07:19:40;;;;;;;5.03;2.40;;;;;;;;;;5074509;28;20090;-43
2021/11/24 07:22:06;;;;;;;6.45;3.13;;;;;;;;;;5068122;28;20151;-43
2021/11/24 07:24:33;;;;;;;6.22;2.80;;;;;;;;;;5054348;28;20465;-43
2021/11/24 07:26:59;;;;;;;4.20;2.45;;;;;;;;;;5053536;28;20554;-43
2021/11/24 07:29:25;;;;;;;4.60;2.45;;;;;;;;;;5066143;28;20489;-44
2021/11/24 07:31:51;;;;;;;6.32;2.60;;;;;;;;;;5073002;28;20450;-43
2021/11/24 07:34:17;;;;;;;6.03;2.88;;;;;;;;;;5074410;28;20024;-42
2021/11/24 07:36:43;;;;;;;6.05;2.45;;;;;;;;;;5073931;28;20048;-43
2021/11/24 07:39:10;;;;;;;5.55;2.35;;;;;;;;;;5072476;28;20048;-45
2021/11/24 07:41:37;;;;;;;4.28;2.47;;;;;;;;;;5074256;28;20029;-44
2021/11/24 07:44:03;;;;;;;6.43;2.22;;;;;;;;;;5073142;28;20020;-45
2021/11/24 07:46:29;;;;;;;5.93;2.50;;;;;;;;;;5074099;28;20397;-45
2021/11/24 07:48:57;;;;;;;7.97;2.83;;;;;;;;;;5072781;28;20386;-44
2021/11/24 07:51:23;;;;;;;5.13;2.30;;;;;;;;;;5073993;28;20052;-46
2021/11/24 07:53:49;;;;;;;5.93;2.40;;;;;;;;;;5067004;28;20091;-46
2021/11/24 07:56:15;;;;;;;4.70;2.42;;;;;;;;;;5052515;28;20021;-46
2021/11/24 07:58:41;;;;;;;5.45;2.33;;;;;;;;;;5058453;28;20020;-44
2021/11/24 08:01:11;;;;;;;6.93;2.17;;;;;;;;;;5073052;28;20056;-44
2021/11/24 08:03:37;;;;;;;5.97;2.10;;;;;;;;;;5073417;28;20038;-46
2021/11/24 08:06:04;;;;;;;5.53;2.20;;;;;;;;;;5072126;28;20044;-44
2021/11/24 08:08:30;;;;;;;4.90;1.90;;;;;;;;;;5072052;28;20477;-47
2021/11/24 08:10:56;;;;;;;5.50;2.10;;;;;;;;;;5069087;28;20074;-46
2021/11/24 08:13:22;;;;;;;5.55;2.50;;;;;;;;;;5072375;28;20043;-45
2021/11/24 08:15:49;;;;;;;4.25;2.05;;;;;;;;;;5071434;28;20497;-48
2021/11/24 08:18:15;;;;;;;4.43;1.77;;;;;;;;;;5073411;28;20028;-44
2021/11/24 08:20:41;;;;;;;3.88;1.90;;;;;;;;;;5071286;28;20028;-47
2021/11/24 08:23:08;;;;;;;5.28;1.83;;;;;;;;;;5066506;28;20206;-47
2021/11/24 08:25:34;;;;;;;7.80;2.10;;;;;;;;;;5068872;28;20021;-44
2021/11/24 08:28:00;;;;;;;3.80;2.42;;;;;;;;;;5065588;28;20057;-45
2021/11/24 08:30:26;;;;;;;2.85;1.65;;;;;;;;;;5073524;28;20111;-46
2021/11/24 08:32:53;;;;;;;4.70;2.10;;;;;;;;;;5072853;28;20021;-44
2021/11/24 08:35:20;;;;;;;3.05;1.73;;;;;;;;;;5072905;28;20591;-46
2021/11/24 08:37:49;;;;;;;4.18;1.63;;;;;;;;;;5071304;28;20044;-47
2021/11/24 08:40:15;;;;;;;5.18;1.98;;;;;;;;;;5072276;28;20028;-45
2021/11/24 08:42:41;;;;;;;3.63;1.95;;;;;;;;;;5072949;28;20035;-44
2021/11/24 08:45:09;;;;;;;3.50;2.38;;;;;;;;;;5072538;28;20134;-48
2021/11/24 08:47:35;;;;;;;4.43;2.30;;;;;;;;;;5072695;28;20421;-44
2021/11/24 08:50:01;;;;;;;6.38;2.35;;;;;;;;;;5070277;28;20028;-46
2021/11/24 08:52:28;;;;;;;3.78;2.20;;;;;;;;;;5073600;28;20452;-44
2021/11/24 08:54:55;;;;;;;5.63;3.20;;;;;;;;;;5071591;28;20090;-45
2021/11/24 08:57:22;;;;;;;3.65;2.22;;;;;;;;;;5056524;28;20087;-43
2021/11/24 08:59:50;;;;;;;6.30;2.33;;;;;;;;;;5052112;28;20462;-50
2021/11/24 09:02:16;;;;;;;9.45;2.53;;;;;;;;;;5064424;28;20056;-43
2021/11/24 09:04:42;;;;;;;6.28;2.08;;;;;;;;;;5072514;28;20078;-45
2021/11/24 09:07:09;;;;;;;5.90;2.95;;;;;;;;;;5071632;28;20039;-48
2021/11/24 09:09:38;;;;;;;3.80;2.17;;;;;;;;;;5072476;28;20074;-45
2021/11/24 09:12:05;;;;;;;5.03;1.75;;;;;;;;;;5054164;28;20042;-47
2021/11/24 09:14:31;;;;;;;7.75;1.83;;;;;;;;;;5053511;28;20021;-46
2021/11/24 09:16:57;;;;;;;6.10;1.98;;;;;;;;;;5052720;28;20422;-45
2021/11/24 09:19:23;;;;;;;4.18;1.88;;;;;;;;;;5052331;28;20021;-47
2021/11/24 09:21:50;;;;;;;4.82;2.33;;;;;;;;;;5051493;28;20021;-56
2021/11/24 09:24:21;;;;;;;4.93;1.95;;;;;;;;;;5071534;28;20033;-45
2021/11/24 09:27:07;;;;;;;9.20;2.38;;;;;;;;;;5071631;28;20116;-55
2021/11/24 09:29:33;;;;;;;4.65;1.98;;;;;;;;;;5067886;28;20094;-46
2021/11/24 09:32:04;;;;;;;3.15;1.88;;;;;;;;;;5070778;28;20548;-51
2021/11/24 09:34:30;;;;;;;3.75;1.98;;;;;;;;;;5070253;28;20024;-60
2021/11/24 09:36:57;;;;;;;5.65;2.42;;;;;;;;;;5070915;28;20052;-53
2021/11/24 09:39:23;;;;;;;6.95;1.90;;;;;;;;;;5072120;28;20050;-57
2021/11/24 09:41:51;;;;;;;4.60;2.40;;;;;;;;;;5068618;28;20115;-67
2021/11/24 09:44:17;;;;;;;5.18;2.33;;;;;;;;;;5071764;28;20029;-54
2021/11/24 09:46:44;;;;;;;3.45;1.83;;;;;;;;;;5071974;28;20027;-58
2021/11/24 09:49:11;;;;;;;5.28;2.03;;;;;;;;;;5071201;28;20036;-57
2021/11/24 09:51:38;;;;;;;7.15;2.03;;;;;;;;;;5071313;28;20052;-55
2021/11/24 09:54:05;;;;;;;4.50;2.13;;;;;;;;;;5070294;28;20424;-56
2021/11/24 09:56:32;;;;;;;2.95;1.70;;;;;;;;;;5071702;28;20029;-57
2021/11/24 09:58:58;;;;;;;3.33;2.03;;;;;;;;;;5068759;28;20032;-57
2021/11/24 10:01:25;;;;;;;3.45;1.80;;;;;;;;;;5071219;28;20095;-59
2021/11/24 10:03:52;;;;;;;3.22;1.83;;;;;;;;;;5070019;28;20361;-65
2021/11/24 10:06:21;;;;;;;5.43;2.33;;;;;;;;;;5071623;28;20032;-57
2021/11/24 10:08:47;;;;;;;3.45;1.70;;;;;;;;;;5071824;28;20171;-59
2021/11/24 10:11:13;;;;;;;3.33;1.55;;;;;;;;;;5062242;28;20025;-59
2021/11/24 10:13:39;;;;;;;4.63;1.83;;;;;;;;;;5060131;28;20032;-62
2021/11/24 10:16:05;;;;;;;3.53;1.67;;;;;;;;;;5070891;28;20025;-60
2021/11/24 10:18:32;;;;;;;3.30;1.48;;;;;;;;;;5071110;28;20032;-62
2021/11/24 10:21:20;;;;;;;3.47;1.30;;;;;;;;;;5071016;28;20111;-59
2021/11/24 10:23:48;;;;;;;2.55;1.70;;;;;;;;;;5066118;28;20013;-58
2021/11/24 10:26:31;;;;;;;2.15;1.55;;;;;;;;;;5064324;28;20029;-58
2021/11/24 10:29:06;;;;;;;2.35;1.60;;;;;;;;;;5070352;28;20021;-59
2021/11/24 10:31:51;;;;;;;3.90;1.45;;;;;;;;;;5071525;28;20111;-56
2021/11/24 10:34:19;;;;;;;2.40;1.60;;;;;;;;;;5070896;28;20525;-59
2021/11/24 10:37:06;;;;;;;2.05;1.30;;;;;;;;;;5070339;28;20059;-58
2021/11/24 10:39:42;;;;;;;4.07;2.10;;;;;;;;;;5071487;28;20035;-58
2021/11/24 10:42:25;;;;;;;2.40;1.42;;;;;;;;;;5055399;28;20060;-59
2021/11/24 10:44:54;;;;;;;3.67;2.20;;;;;;;;;;5030713;28;20030;-66
2021/11/24 10:47:20;;;;;;;3.58;1.40;;;;;;;;;;5031317;28;20061;-57
2021/11/24 10:49:46;;;;;;;3.17;1.55;;;;;;;;;;5031070;28;20025;-61
2021/11/24 10:52:13;;;;;;;1.60;1.30;;;;;;;;;;5030838;28;20093;-58
2021/11/24 10:54:39;;;;;;;4.20;1.50;;;;;;;;;;5048933;28;20056;-58
2021/11/24 10:57:12;;;;;;;2.00;1.52;;;;;;;;;;5069758;28;20040;-60
2021/11/24 10:59:40;;;;;;;2.00;1.40;;;;;;;;;;5070892;28;20025;-58
2021/11/24 11:02:26;;;;;;;4.10;1.95;;;;;;;;;;5070363;28;20028;-59
2021/11/24 11:04:56;;;;;;;2.08;1.20;;;;;;;;;;5070576;28;20025;-64
2021/11/24 11:07:22;;;;;;;2.58;1.33;;;;;;;;;;5070898;28;20051;-58
2021/11/24 11:09:48;;;;;;;3.13;1.55;;;;;;;;;;5071169;28;20114;-59
2021/11/24 11:12:15;;;;;;;3.28;1.60;;;;;;;;;;5063049;28;20028;-60
2021/11/24 11:14:42;;;;;;;2.97;1.77;;;;;;;;;;5072269;28;20044;-57
2021/11/24 11:17:10;;;;;;;2.38;1.70;;;;;;;;;;5073786;28;20029;-51
2021/11/24 11:19:38;;;;;;;2.35;1.38;;;;;;;;;;5074186;28;20520;-57
2021/11/24 11:22:04;;;;;;;2.17;1.40;;;;;;;;;;5068564;28;20029;-57
2021/11/24 11:24:30;;;;;;;1.90;1.55;;;;;;;;;;5063203;28;20488;-59
2021/11/24 11:26:56;;;;;;;2.75;1.50;;;;;;;;;;5073357;28;20062;-59
2021/11/24 11:29:23;;;;;;;2.72;1.95;;;;;;;;;;5074294;28;20037;-55
2021/11/24 11:31:52;;;;;;;3.22;1.70;;;;;;;;;;5074229;28;20025;-61
2021/11/24 11:34:18;;;;;;;4.60;1.58;;;;;;;;;;5074216;28;20028;-58
2021/11/24 11:36:44;;;;;;;2.40;1.30;;;;;;;;;;5074340;28;20140;-57
2021/11/24 11:39:10;;;;;;;3.90;1.55;;;;;;;;;;5073601;28;20082;-56
2021/11/24 11:41:38;;;;;;;1.90;1.30;;;;;;;;;;5065655;28;20033;-57
2021/11/24 11:44:05;;;;;;;3.25;1.60;;;;;;;;;;5053023;28;20503;-58
2021/11/24 11:46:33;;;;;;;3.15;1.88;;;;;;;;;;5057045;28;20032;-57
2021/11/24 11:49:07;;;;;;;4.10;1.60;;;;;;;;;;5076959;28;20032;-59
2021/11/24 11:51:38;;;;;;;3.25;1.77;;;;;;;;;;5073923;28;20078;-60
2021/11/24 11:54:05;;;;;;;2.50;1.40;;;;;;;;;;5070253;28;20504;-60
2021/11/24 11:56:34;;;;;;;7.05;1.40;;;;;;;;;;5073427;28;20064;-56
2021/11/24 11:59:04;;;;;;;4.88;1.58;;;;;;;;;;5072891;28;20087;-50
2021/11/24 12:01:34;;;;;;;5.90;1.98;;;;;;;;;;5073141;28;20024;-65
2021/11/24 12:04:19;;;;;;;2.35;1.48;;;;;;;;;;5072339;28;20119;-54
2021/11/24 12:07:01;;;;;;;3.38;1.60;;;;;;;;;;5071247;28;20411;-57
2021/11/24 12:09:39;;;;;;;3.15;1.55;;;;;;;;;;5073608;28;20082;-53
2021/11/24 12:14:47;;;;;;;1.52;1.30;;;;;;;;;;5052878;28;20063;-59
2021/11/24 12:17:32;;;;;;;4.17;1.50;;;;;;;;;;5059254;28;20054;-60
2021/11/24 12:20:03;;;;;;;2.03;1.63;;;;;;;;;;5072374;28;20386;-58
2021/11/24 12:22:52;;;;;;;3.83;1.85;;;;;;;;;;5064254;28;20033;-56
2021/11/24 12:25:21;;;;;;;2.13;1.35;;;;;;;;;;5066799;28;20024;-58
2021/11/24 12:28:09;;;;;;;2.47;1.55;;;;;;;;;;5073361;28;20028;-58
2021/11/24 12:31:00;;;;;;;2.08;1.33;;;;;;;;;;5073153;28;20035;-58
2021/11/24 12:33:27;;;;;;;2.30;1.20;;;;;;;;;;5073281;28;20017;-59
2021/11/24 12:35:55;;;;;;;4.13;1.45;;;;;;;;;;5072705;28;20041;-65
2021/11/24 12:38:25;;;;;;;3.70;1.63;;;;;;;;;;5072665;28;20051;-58
2021/11/24 12:40:53;;;;;;;2.50;1.33;;;;;;;;;;5070708;28;20022;-59
2021/11/24 12:43:20;;;;;;;2.08;1.38;;;;;;;;;;5052270;28;20067;-58
2021/11/24 12:46:04;;;;;;;1.92;1.45;;;;;;;;;;5062007;28;20048;-58
2021/11/24 12:48:35;;;;;;;2.03;1.30;;;;;;;;;;5072979;28;20032;-58
2021/11/24 12:51:04;;;;;;;2.65;2.15;;;;;;;;;;5071770;28;20131;-57
2021/11/24 12:53:30;;;;;;;2.25;1.20;;;;;;;;;;5072753;28;20104;-59
2021/11/24 12:56:26;;;;;;;2.17;1.48;;;;;;;;;;5071689;28;20116;-61
2021/11/24 12:58:52;;;;;;;2.78;1.45;;;;;;;;;;5057410;28;20036;-56
2021/11/24 13:01:20;;;;;;;2.53;1.52;;;;;;;;;;5070135;28;20048;-56
2021/11/24 13:03:47;;;;;;;2.08;1.52;;;;;;;;;;5071679;28;20478;-58
2021/11/24 13:06:13;;;;;;;1.85;1.30;;;;;;;;;;5071256;28;20033;-57
2021/11/24 13:08:39;;;;;;;2.00;1.60;;;;;;;;;;5072525;28;20036;-63
2021/11/24 13:11:08;;;;;;;3.97;1.50;;;;;;;;;;5069345;28;20024;-58
2021/11/24 13:13:34;;;;;;;1.63;1.25;;;;;;;;;;5041466;28;20432;-59
2021/11/24 13:16:01;;;;;;;2.65;1.42;;;;;;;;;;5071195;28;20432;-58
2021/11/24 13:18:27;;;;;;;1.60;1.30;;;;;;;;;;5069784;28;20032;-58
2021/11/24 13:20:53;;;;;;;2.75;1.75;;;;;;;;;;5072213;28;20021;-59
2021/11/24 13:23:19;;;;;;;4.10;1.80;;;;;;;;;;5056232;28;20044;-58
2021/11/24 13:25:45;;;;;;;2.72;1.50;;;;;;;;;;5071489;28;20351;-58
2021/11/24 13:28:16;;;;;;;2.80;1.80;;;;;;;;;;5069047;28;20432;-59
2021/11/24 13:30:53;;;;;;;2.63;1.57;;;;;;;;;;5071794;28;20086;-59
2021/11/24 13:33:20;;;;;;;2.17;1.50;;;;;;;;;;5064058;28;20029;-59
2021/11/24 13:35:48;;;;;;;1.70;1.50;;;;;;;;;;5051897;28;20056;-58
2021/11/24 13:38:35;;;;;;;2.67;1.58;;;;;;;;;;5048126;28;20041;-58
2021/11/24 13:41:16;;;;;;;2.30;1.70;;;;;;;;;;5034215;28;20497;-60
2021/11/24 13:43:47;;;;;;;1.90;1.67;;;;;;;;;;5051290;28;20021;-59
2021/11/24 13:46:24;;;;;;;3.78;1.45;;;;;;;;;;5050285;28;20033;-58
2021/11/24 13:49:02;;;;;;;3.20;1.58;;;;;;;;;;5035832;28;20037;-59
2021/11/24 13:51:29;;;;;;;2.53;1.55;;;;;;;;;;5031899;28;20025;-59
2021/11/24 13:54:09;;;;;;;2.95;1.63;;;;;;;;;;5044532;28;20021;-59
2021/11/24 13:56:51;;;;;;;3.33;1.58;;;;;;;;;;5071136;28;20024;-59
2021/11/24 13:59:24;;;;;;;2.13;1.48;;;;;;;;;;5070284;28;20035;-60
2021/11/24 14:01:58;;;;;;;2.17;1.35;;;;;;;;;;5050003;28;20024;-60
2021/11/24 14:04:41;;;;;;;3.22;1.60;;;;;;;;;;5047849;28;20351;-59
2021/11/24 14:07:14;;;;;;;2.88;2.05;;;;;;;;;;5050838;28;20036;-59
2021/11/24 14:09:40;;;;;;;2.13;1.60;;;;;;;;;;5051865;28;20077;-59
2021/11/24 14:12:10;;;;;;;2.53;1.75;;;;;;;;;;5050939;28;20057;-60
2021/11/24 14:14:50;;;;;;;2.95;1.85;;;;;;;;;;5051226;28;20021;-59
2021/11/24 14:17:30;;;;;;;2.85;2.30;;;;;;;;;;5033978;28;20662;-60
2021/11/24 14:20:05;;;;;;;3.05;1.60;;;;;;;;;;5031515;28;20036;-65
2021/11/24 14:22:39;;;;;;;2.17;1.58;;;;;;;;;;5040223;28;20032;-60
2021/11/24 14:25:06;;;;;;;3.58;1.75;;;;;;;;;;5061004;28;20052;-60
2021/11/24 14:27:32;;;;;;;3.35;2.03;;;;;;;;;;5051476;28;20033;-60
2021/11/24 14:30:01;;;;;;;3.25;1.83;;;;;;;;;;5037180;28;20117;-65
2021/11/24 14:32:28;;;;;;;2.40;1.83;;;;;;;;;;5051161;28;20374;-59
2021/11/24 14:34:54;;;;;;;2.50;1.73;;;;;;;;;;5051416;28;20036;-60
2021/11/24 14:37:20;;;;;;;3.65;1.77;;;;;;;;;;5048920;28;20745;-60
2021/11/24 14:39:46;;;;;;;2.53;2.00;;;;;;;;;;5050551;28;20033;-60
2021/11/24 14:42:12;;;;;;;4.70;2.55;;;;;;;;;;5049837;28;20033;-62
2021/11/24 14:44:38;;;;;;;3.72;1.83;;;;;;;;;;5069023;28;20047;-59
2021/11/24 14:47:05;;;;;;;3.92;2.10;;;;;;;;;;5070397;28;20108;-61
2021/11/24 14:49:31;;;;;;;10.05;6.13;;;;;;;;;;5073766;28;20416;-60
2021/11/24 14:52:00;;;;;;;13.57;8.98;;;;;;;;;;5075214;28;20359;-61